createdAt,value
2017-07-31T00:00:00.405Z,52.30
2017-07-31T00:02:27.932Z,52.40
2017-07-31T00:04:55.460Z,52.30
2017-07-31T00:07:22.949Z,52.40
2017-07-31T00:09:50.497Z,52.40
2017-07-31T00:12:18.126Z,52.50
2017-07-31T00:14:46.394Z,52.50
2017-07-31T00:17:14.709Z,52.60
2017-07-31T00:19:42.221Z,52.50
2017-07-31T00:22:09.735Z,52.60
2017-07-31T00:24:37.265Z,52.70
2017-07-31T00:27:04.797Z,52.60
2017-07-31T00:29:33.085Z,53.00
2017-07-31T00:32:00.597Z,52.60
2017-07-31T00:34:28.126Z,52.70
2017-07-31T00:36:55.649Z,52.90
2017-07-31T00:39:23.933Z,52.70
2017-07-31T00:41:52.226Z,53.00
2017-07-31T00:44:19.742Z,52.90
2017-07-31T00:46:47.230Z,53.50
2017-07-31T00:49:14.747Z,52.80
2017-07-31T00:51:42.249Z,53.00
2017-07-31T00:54:09.878Z,53.00
2017-07-31T00:56:37.370Z,52.90
2017-07-31T00:59:04.865Z,52.80
2017-07-31T01:01:32.409Z,53.00
2017-07-31T01:03:59.898Z,53.00
2017-07-31T01:06:27.413Z,53.00
2017-07-31T01:08:54.902Z,53.80
2017-07-31T01:11:22.422Z,52.90
2017-07-31T01:13:49.931Z,53.00
2017-07-31T01:16:17.442Z,53.10
2017-07-31T01:18:44.963Z,53.10
2017-07-31T01:21:13.228Z,53.30
2017-07-31T01:23:40.807Z,53.30
2017-07-31T01:26:09.086Z,53.20
2017-07-31T01:28:37.373Z,53.20
2017-07-31T01:31:04.897Z,53.20
2017-07-31T01:33:32.417Z,53.40
2017-07-31T01:35:59.923Z,53.20
2017-07-31T01:38:28.191Z,54.20
2017-07-31T01:40:55.722Z,53.30
2017-07-31T01:43:23.221Z,53.30
2017-07-31T01:45:51.523Z,54.00
2017-07-31T01:48:19.803Z,53.50
2017-07-31T01:50:47.473Z,53.50
2017-07-31T01:53:14.986Z,53.50
2017-07-31T01:55:42.490Z,53.60
2017-07-31T01:58:10.001Z,53.50
2017-07-31T02:00:38.288Z,53.70
2017-07-31T02:03:06.577Z,53.60
2017-07-31T02:05:34.841Z,53.70
2017-07-31T02:08:03.138Z,53.80
2017-07-31T02:10:30.630Z,53.60
2017-07-31T02:12:58.209Z,53.70
2017-07-31T02:15:25.735Z,53.70
2017-07-31T02:17:53.224Z,53.70
2017-07-31T02:20:20.730Z,53.80
2017-07-31T02:22:48.245Z,53.80
2017-07-31T02:25:15.757Z,53.70
2017-07-31T02:27:43.262Z,53.80
2017-07-31T02:30:10.773Z,53.70
2017-07-31T02:32:38.278Z,53.80
2017-07-31T02:35:05.818Z,53.90
2017-07-31T02:37:33.305Z,53.80
2017-07-31T02:40:01.623Z,53.90
2017-07-31T02:42:29.118Z,53.90
2017-07-31T02:44:56.657Z,53.90
2017-07-31T02:47:24.162Z,54.00
2017-07-31T02:49:52.423Z,54.10
2017-07-31T02:52:19.961Z,54.10
2017-07-31T02:54:47.477Z,54.20
2017-07-31T02:57:15.021Z,53.90
2017-07-31T02:59:43.274Z,54.00
2017-07-31T03:02:10.806Z,53.90
2017-07-31T03:04:38.314Z,54.00
2017-07-31T03:07:05.822Z,54.10
2017-07-31T03:09:33.341Z,54.30
2017-07-31T03:12:00.853Z,54.00
2017-07-31T03:14:28.374Z,54.10
2017-07-31T03:16:55.873Z,54.10
2017-07-31T03:19:23.578Z,54.20
2017-07-31T03:21:51.066Z,54.20
2017-07-31T03:24:18.610Z,54.50
2017-07-31T03:26:46.262Z,54.40
2017-07-31T03:29:13.796Z,54.40
2017-07-31T03:31:41.374Z,54.20
2017-07-31T03:34:08.924Z,54.30
2017-07-31T03:36:36.437Z,54.20
2017-07-31T03:39:04.119Z,54.30
2017-07-31T03:41:31.622Z,54.30
2017-07-31T03:43:59.168Z,54.30
2017-07-31T03:46:26.673Z,54.30
2017-07-31T03:48:54.234Z,54.30
2017-07-31T03:51:21.724Z,54.30
2017-07-31T03:53:49.230Z,54.30
2017-07-31T03:56:16.775Z,55.20
2017-07-31T03:58:44.334Z,54.40
2017-07-31T04:01:11.839Z,54.40
2017-07-31T04:03:39.359Z,54.50
2017-07-31T04:06:06.851Z,54.50
2017-07-31T04:08:34.368Z,54.60
2017-07-31T04:11:01.866Z,54.60
2017-07-31T04:13:29.437Z,54.60
2017-07-31T04:15:57.730Z,54.70
2017-07-31T04:18:26.060Z,54.50
2017-07-31T04:20:53.573Z,54.40
2017-07-31T04:23:21.078Z,54.60
2017-07-31T04:25:48.622Z,54.60
2017-07-31T04:28:16.126Z,54.50
2017-07-31T04:30:44.419Z,54.70
2017-07-31T04:33:12.103Z,54.70
2017-07-31T04:35:39.596Z,54.60
2017-07-31T04:38:07.123Z,54.60
2017-07-31T04:40:34.629Z,54.40
2017-07-31T04:43:02.135Z,54.30
2017-07-31T04:45:29.653Z,54.40
2017-07-31T04:47:57.917Z,54.50
2017-07-31T04:50:26.266Z,55.30
2017-07-31T04:52:53.782Z,54.40
2017-07-31T04:55:21.411Z,54.40
2017-07-31T04:57:48.949Z,54.30
2017-07-31T05:00:16.481Z,53.60
2017-07-31T05:02:43.985Z,54.30
2017-07-31T05:05:11.477Z,54.20
2017-07-31T05:07:39.006Z,54.30
2017-07-31T05:10:07.277Z,54.40
2017-07-31T05:12:34.773Z,54.40
2017-07-31T05:15:02.291Z,54.40
2017-07-31T05:17:29.826Z,54.50
2017-07-31T05:19:57.392Z,54.50
2017-07-31T05:22:25.788Z,54.60
2017-07-31T05:24:53.336Z,54.60
2017-07-31T05:27:20.849Z,54.60
2017-07-31T05:29:48.353Z,54.90
2017-07-31T05:32:15.894Z,54.70
2017-07-31T05:34:44.151Z,54.60
2017-07-31T05:37:12.437Z,54.80
2017-07-31T05:39:40.708Z,54.40
2017-07-31T05:42:08.213Z,54.50
2017-07-31T05:44:35.722Z,54.60
2017-07-31T05:47:03.989Z,54.30
2017-07-31T05:49:32.281Z,54.00
2017-07-31T05:52:00.565Z,54.50
2017-07-31T05:54:28.089Z,54.20
2017-07-31T05:56:55.594Z,54.10
2017-07-31T05:59:23.133Z,54.10
2017-07-31T06:01:51.433Z,54.30
2017-07-31T06:04:18.974Z,54.20
2017-07-31T06:06:47.454Z,54.00
2017-07-31T06:09:15.028Z,54.00
2017-07-31T06:11:43.297Z,53.90
2017-07-31T06:14:10.794Z,53.80
2017-07-31T06:16:38.341Z,54.00
2017-07-31T06:19:05.868Z,53.80
2017-07-31T06:21:34.183Z,54.70
2017-07-31T06:24:01.813Z,53.90
2017-07-31T06:26:29.330Z,53.90
2017-07-31T06:28:56.850Z,54.00
2017-07-31T06:31:24.409Z,53.90
2017-07-31T06:33:53.020Z,53.60
2017-07-31T06:36:20.538Z,53.60
2017-07-31T06:38:48.893Z,53.80
2017-07-31T06:41:16.399Z,53.50
2017-07-31T06:43:43.910Z,53.50
2017-07-31T06:46:11.646Z,53.50
2017-07-31T06:48:39.141Z,53.60
2017-07-31T06:51:06.654Z,53.50
2017-07-31T06:53:34.150Z,53.60
2017-07-31T06:56:01.675Z,53.30
2017-07-31T06:58:29.181Z,53.40
2017-07-31T07:00:57.459Z,53.50
2017-07-31T07:03:25.005Z,53.50
2017-07-31T07:05:52.500Z,53.50
2017-07-31T07:08:20.126Z,53.30
2017-07-31T07:10:47.698Z,53.50
2017-07-31T07:13:15.978Z,53.40
2017-07-31T07:15:44.258Z,53.50
2017-07-31T07:18:11.765Z,53.40
2017-07-31T07:20:39.282Z,53.60
2017-07-31T07:23:12.628Z,53.50
2017-07-31T07:25:40.139Z,53.40
2017-07-31T07:28:07.611Z,53.60
2017-07-31T07:30:35.192Z,53.60
2017-07-31T07:33:03.022Z,53.60
2017-07-31T07:35:30.542Z,53.70
2017-07-31T07:37:58.058Z,53.70
2017-07-31T07:40:25.726Z,53.80
2017-07-31T07:42:53.241Z,53.50
2017-07-31T07:45:21.514Z,53.70
2017-07-31T07:47:49.925Z,53.60
2017-07-31T07:50:17.423Z,53.50
2017-07-31T07:52:44.942Z,53.60
2017-07-31T07:55:12.460Z,53.70
2017-07-31T07:57:40.734Z,53.70
2017-07-31T08:00:08.224Z,53.60
2017-07-31T08:02:35.762Z,53.60
2017-07-31T08:05:04.083Z,53.70
2017-07-31T08:07:31.719Z,53.70
2017-07-31T08:09:59.237Z,53.60
2017-07-31T08:12:26.796Z,53.50
2017-07-31T08:14:54.325Z,53.60
2017-07-31T08:17:21.850Z,53.50
2017-07-31T08:19:49.377Z,53.60
2017-07-31T08:22:17.686Z,54.30
2017-07-31T08:24:45.267Z,53.50
2017-07-31T08:27:12.792Z,53.60
2017-07-31T08:29:41.054Z,53.50
2017-07-31T08:32:09.362Z,53.60
2017-07-31T08:34:36.886Z,53.60
2017-07-31T08:37:05.190Z,53.60
2017-07-31T08:39:32.745Z,53.60
2017-07-31T08:42:00.267Z,53.60
2017-07-31T08:44:27.855Z,53.50
2017-07-31T08:46:55.394Z,53.50
2017-07-31T08:49:23.690Z,53.50
2017-07-31T08:51:51.213Z,53.50
2017-07-31T08:54:18.867Z,53.50
2017-07-31T08:56:46.403Z,53.40
2017-07-31T08:59:13.954Z,53.60
2017-07-31T09:01:41.473Z,53.60
2017-07-31T09:04:09.785Z,53.70
2017-07-31T09:06:37.297Z,53.60
2017-07-31T09:09:05.625Z,54.10
2017-07-31T09:11:33.197Z,53.80
2017-07-31T09:14:00.703Z,53.80
2017-07-31T09:16:29.002Z,53.70
2017-07-31T09:18:56.511Z,53.60
2017-07-31T09:21:24.017Z,53.60
2017-07-31T09:23:51.544Z,53.70
2017-07-31T09:26:19.837Z,54.50
2017-07-31T09:28:47.387Z,53.70
2017-07-31T09:31:16.363Z,53.70
2017-07-31T09:33:44.662Z,53.70
2017-07-31T09:36:12.186Z,53.70
2017-07-31T09:38:39.685Z,53.70
2017-07-31T09:41:07.199Z,53.70
2017-07-31T09:43:34.691Z,53.60
2017-07-31T09:46:03.143Z,53.60
2017-07-31T09:48:30.642Z,53.60
2017-07-31T09:50:58.162Z,53.60
2017-07-31T09:53:25.681Z,53.60
2017-07-31T09:55:53.190Z,53.60
2017-07-31T09:58:21.486Z,53.60
2017-07-31T10:00:48.985Z,53.50
2017-07-31T10:03:16.514Z,53.50
2017-07-31T10:05:44.035Z,53.50
2017-07-31T10:08:12.302Z,54.20
2017-07-31T10:10:39.831Z,53.60
2017-07-31T10:13:07.342Z,53.50
2017-07-31T10:15:35.686Z,53.50
2017-07-31T10:18:03.313Z,53.50
2017-07-31T10:20:30.934Z,53.50
2017-07-31T10:22:59.210Z,54.00
2017-07-31T10:25:27.478Z,53.50
2017-07-31T10:27:55.025Z,53.40
2017-07-31T10:30:22.528Z,53.40
2017-07-31T10:32:50.034Z,53.40
2017-07-31T10:35:17.581Z,53.40
2017-07-31T10:37:45.081Z,53.40
2017-07-31T10:40:13.398Z,53.40
2017-07-31T10:42:40.898Z,53.40
2017-07-31T10:45:09.241Z,54.20
2017-07-31T10:47:36.767Z,53.40
2017-07-31T10:50:04.279Z,53.40
2017-07-31T10:52:31.910Z,53.40
2017-07-31T10:54:59.421Z,53.40
2017-07-31T10:57:27.718Z,54.20
2017-07-31T10:59:55.671Z,53.30
2017-07-31T11:02:23.964Z,53.40
2017-07-31T11:04:51.504Z,53.40
2017-07-31T11:07:19.782Z,53.40
2017-07-31T11:09:48.097Z,53.30
2017-07-31T11:12:15.613Z,53.30
2017-07-31T11:14:43.907Z,53.30
2017-07-31T11:17:11.410Z,53.30
2017-07-31T11:19:38.928Z,53.30
2017-07-31T11:22:06.438Z,53.30
2017-07-31T11:24:33.957Z,53.30
2017-07-31T11:27:01.470Z,53.30
2017-07-31T11:29:29.758Z,53.30
2017-07-31T11:31:58.017Z,53.30
2017-07-31T11:34:25.542Z,53.30
2017-07-31T11:36:53.058Z,53.30
2017-07-31T11:39:20.565Z,53.30
2017-07-31T11:41:48.102Z,53.30
2017-07-31T11:44:15.627Z,53.50
2017-07-31T11:46:43.907Z,53.30
2017-07-31T11:49:11.464Z,53.20
2017-07-31T11:51:39.755Z,53.30
2017-07-31T11:54:07.276Z,53.20
2017-07-31T11:56:35.562Z,54.20
2017-07-31T11:59:03.870Z,53.70
2017-07-31T12:01:31.409Z,53.20
2017-07-31T12:03:59.693Z,53.30
2017-07-31T12:06:27.220Z,53.30
2017-07-31T12:08:55.492Z,53.70
2017-07-31T12:11:23.014Z,53.30
2017-07-31T12:13:50.559Z,53.30
2017-07-31T12:16:18.076Z,53.20
2017-07-31T12:18:45.618Z,53.50
2017-07-31T12:21:13.127Z,53.30
2017-07-31T12:23:40.795Z,53.40
2017-07-31T12:26:08.330Z,53.60
2017-07-31T12:28:36.591Z,53.40
2017-07-31T12:31:04.889Z,53.30
2017-07-31T12:33:33.143Z,53.50
2017-07-31T12:36:01.447Z,53.50
2017-07-31T12:38:28.946Z,53.30
2017-07-31T12:40:56.524Z,53.40
2017-07-31T12:43:24.113Z,53.50
2017-07-31T12:45:51.614Z,53.30
2017-07-31T12:48:19.310Z,53.10
2017-07-31T12:50:47.604Z,53.40
2017-07-31T12:53:15.870Z,53.10
2017-07-31T12:55:44.148Z,53.70
2017-07-31T12:58:12.429Z,53.10
2017-07-31T13:00:40.755Z,53.10
2017-07-31T13:03:09.124Z,53.10
2017-07-31T13:05:36.651Z,53.00
2017-07-31T13:08:04.915Z,53.10
2017-07-31T13:10:33.225Z,53.10
2017-07-31T13:13:00.749Z,53.10
2017-07-31T13:15:29.025Z,53.20
2017-07-31T13:17:57.314Z,53.10
2017-07-31T13:20:24.820Z,53.10
2017-07-31T13:22:52.350Z,53.00
2017-07-31T13:25:19.898Z,53.00
2017-07-31T13:27:47.441Z,53.10
2017-07-31T13:30:14.954Z,53.30
2017-07-31T13:32:42.500Z,53.00
2017-07-31T13:35:10.017Z,53.10
2017-07-31T13:37:37.565Z,53.00
2017-07-31T13:40:05.855Z,53.20
2017-07-31T13:42:33.395Z,53.20
2017-07-31T13:45:01.010Z,53.10
2017-07-31T13:47:28.579Z,52.40
2017-07-31T13:49:56.246Z,53.00
2017-07-31T13:52:23.777Z,53.00
2017-07-31T13:54:51.409Z,53.00
2017-07-31T13:57:19.693Z,53.00
2017-07-31T13:59:47.218Z,53.00
2017-07-31T14:02:14.778Z,53.00
2017-07-31T14:04:42.320Z,53.00
2017-07-31T14:07:09.821Z,53.00
2017-07-31T14:09:37.329Z,53.10
2017-07-31T14:12:04.890Z,53.10
2017-07-31T14:14:32.419Z,53.00
2017-07-31T14:16:59.944Z,53.10
2017-07-31T14:19:28.222Z,53.20
2017-07-31T14:21:56.510Z,53.10
2017-07-31T14:24:24.018Z,53.10
2017-07-31T14:26:51.530Z,53.00
2017-07-31T14:29:19.047Z,53.00
2017-07-31T14:31:46.563Z,53.10
2017-07-31T14:34:14.105Z,53.10
2017-07-31T14:36:41.621Z,53.00
2017-07-31T14:39:09.170Z,53.00
2017-07-31T14:41:36.686Z,53.10
2017-07-31T14:44:04.212Z,53.30
2017-07-31T14:46:32.508Z,52.40
2017-07-31T14:49:00.113Z,53.00
2017-07-31T14:51:27.656Z,53.00
2017-07-31T14:53:55.182Z,53.00
2017-07-31T14:56:22.701Z,53.00
2017-07-31T14:58:50.266Z,53.10
2017-07-31T15:01:17.785Z,53.10
2017-07-31T15:03:45.418Z,53.00
2017-07-31T15:06:13.693Z,53.00
2017-07-31T15:08:41.968Z,53.40
2017-07-31T15:11:10.253Z,53.10
2017-07-31T15:13:37.764Z,53.10
2017-07-31T15:16:05.325Z,53.10
2017-07-31T15:18:32.819Z,53.10
2017-07-31T15:21:01.089Z,53.10
2017-07-31T15:23:29.384Z,53.10
2017-07-31T15:25:57.042Z,53.00
2017-07-31T15:28:24.610Z,53.20
2017-07-31T15:30:52.149Z,53.20
2017-07-31T15:33:20.513Z,53.00
2017-07-31T15:35:48.802Z,53.10
2017-07-31T15:38:17.084Z,53.00
2017-07-31T15:40:44.625Z,53.00
2017-07-31T15:43:13.140Z,53.80
2017-07-31T15:45:40.657Z,53.00
2017-07-31T15:48:08.197Z,53.00
2017-07-31T15:50:35.821Z,52.90
2017-07-31T15:53:03.344Z,52.90
2017-07-31T15:55:30.916Z,53.00
2017-07-31T15:57:58.457Z,53.80
2017-07-31T16:00:26.728Z,53.00
2017-07-31T16:02:54.274Z,53.00
2017-07-31T16:05:21.801Z,53.10
2017-07-31T16:07:49.331Z,53.00
2017-07-31T16:10:16.867Z,53.00
2017-07-31T16:12:45.167Z,53.00
2017-07-31T16:15:12.768Z,53.00
2017-07-31T16:17:40.321Z,53.00
2017-07-31T16:20:07.885Z,53.00
2017-07-31T16:22:35.392Z,52.90
2017-07-31T16:25:02.914Z,53.00
2017-07-31T16:27:30.464Z,53.00
2017-07-31T16:29:58.001Z,53.20
2017-07-31T16:32:25.502Z,53.20
2017-07-31T16:34:53.069Z,53.10
2017-07-31T16:37:42.248Z,53.40
2017-07-31T16:40:26.358Z,53.40
2017-07-31T16:43:05.748Z,53.40
2017-07-31T16:45:40.338Z,53.00
2017-07-31T16:48:20.459Z,53.20
2017-07-31T16:50:47.994Z,53.20
2017-07-31T16:53:15.566Z,53.10
2017-07-31T16:55:43.179Z,53.00
2017-07-31T16:58:11.480Z,53.20
2017-07-31T17:00:38.992Z,53.20
2017-07-31T17:03:06.477Z,53.40
2017-07-31T17:05:34.843Z,53.10
2017-07-31T17:08:03.125Z,53.80
2017-07-31T17:10:31.423Z,53.10
2017-07-31T17:12:58.945Z,53.10
2017-07-31T17:15:26.501Z,53.00
2017-07-31T17:17:54.000Z,53.40
2017-07-31T17:20:21.542Z,53.10
2017-07-31T17:22:49.839Z,53.10
2017-07-31T17:25:17.427Z,53.00
2017-07-31T17:27:44.973Z,53.00
2017-07-31T17:30:12.497Z,53.10
2017-07-31T17:32:40.025Z,53.00
2017-07-31T17:35:07.528Z,53.00
2017-07-31T17:37:35.082Z,53.00
2017-07-31T17:40:02.702Z,53.10
2017-07-31T17:42:30.233Z,53.00
2017-07-31T17:44:57.786Z,53.00
2017-07-31T17:47:25.351Z,53.10
2017-07-31T17:49:52.900Z,53.20
2017-07-31T17:52:20.445Z,53.30
2017-07-31T17:54:47.959Z,53.10
2017-07-31T17:57:15.486Z,53.10
2017-07-31T17:59:43.051Z,53.10
2017-07-31T18:02:10.594Z,53.00
2017-07-31T18:04:38.094Z,53.40
2017-07-31T18:07:05.611Z,53.20
2017-07-31T18:09:33.147Z,53.10
2017-07-31T18:12:00.738Z,53.10
2017-07-31T18:14:28.283Z,53.10
2017-07-31T18:16:55.814Z,53.10
2017-07-31T18:19:23.373Z,53.10
2017-07-31T18:21:51.659Z,53.20
2017-07-31T18:24:19.195Z,53.10
2017-07-31T18:26:47.473Z,53.20
2017-07-31T18:29:15.787Z,53.30
2017-07-31T18:31:43.437Z,53.30
2017-07-31T18:34:11.005Z,53.10
2017-07-31T18:36:38.555Z,53.10
2017-07-31T18:39:06.223Z,53.10
2017-07-31T18:41:33.914Z,53.10
2017-07-31T18:44:01.434Z,53.20
2017-07-31T18:46:29.027Z,53.10
2017-07-31T18:48:56.577Z,53.10
2017-07-31T18:51:24.093Z,53.10
2017-07-31T18:53:51.633Z,53.20
2017-07-31T18:56:19.965Z,53.10
2017-07-31T18:58:47.445Z,53.10
2017-07-31T19:01:15.003Z,53.10
2017-07-31T19:03:42.581Z,53.10
2017-07-31T19:06:10.095Z,53.10
2017-07-31T19:08:37.613Z,53.20
2017-07-31T19:11:05.930Z,53.20
2017-07-31T19:13:33.469Z,53.10
2017-07-31T19:16:01.003Z,53.10
2017-07-31T19:18:29.383Z,53.30
2017-07-31T19:20:57.662Z,53.20
2017-07-31T19:23:25.979Z,53.20
2017-07-31T19:25:53.517Z,53.20
2017-07-31T19:28:21.088Z,53.20
2017-07-31T19:30:48.619Z,53.10
2017-07-31T19:33:16.913Z,53.20
2017-07-31T19:35:44.476Z,53.10
2017-07-31T19:38:12.012Z,53.20
2017-07-31T19:40:40.359Z,53.20
2017-07-31T19:43:07.922Z,53.20
2017-07-31T19:45:35.470Z,53.20
2017-07-31T19:48:03.036Z,53.20
2017-07-31T19:50:30.563Z,53.30
2017-07-31T19:52:58.094Z,53.30
2017-07-31T19:55:25.598Z,53.30
2017-07-31T19:57:53.172Z,53.30
2017-07-31T20:00:20.757Z,53.60
2017-07-31T20:02:49.167Z,53.30
2017-07-31T20:05:16.711Z,53.30
2017-07-31T20:07:44.271Z,53.30
2017-07-31T20:10:11.883Z,53.30
2017-07-31T20:12:39.511Z,53.20
2017-07-31T20:15:07.059Z,53.30
2017-07-31T20:17:34.646Z,53.30
2017-07-31T20:20:02.258Z,53.40
2017-07-31T20:22:30.542Z,53.30
2017-07-31T20:24:58.114Z,53.30
2017-07-31T20:27:25.643Z,53.40
2017-07-31T20:29:53.934Z,54.10
2017-07-31T20:32:21.471Z,53.30
2017-07-31T20:34:49.979Z,53.30
2017-07-31T20:37:17.550Z,53.20
2017-07-31T20:39:45.099Z,53.30
2017-07-31T20:42:12.621Z,53.30
2017-07-31T20:44:40.122Z,53.30
2017-07-31T20:47:07.780Z,53.40
2017-07-31T20:49:35.319Z,53.30
2017-07-31T20:52:03.606Z,53.40
2017-07-31T20:54:31.148Z,53.30
2017-07-31T20:56:59.457Z,53.50
2017-07-31T20:59:27.001Z,53.50
2017-07-31T21:01:54.845Z,53.40
2017-07-31T21:04:23.138Z,53.40
2017-07-31T21:06:50.696Z,53.30
2017-07-31T21:09:18.248Z,53.60
2017-07-31T21:11:45.810Z,53.50
2017-07-31T21:14:13.338Z,53.30
2017-07-31T21:16:40.856Z,53.40
2017-07-31T21:19:08.394Z,53.30
2017-07-31T21:21:36.049Z,53.30
2017-07-31T21:24:03.558Z,53.30
2017-07-31T21:26:31.122Z,53.30
2017-07-31T21:28:58.655Z,53.30
2017-07-31T21:31:26.217Z,53.80
2017-07-31T21:33:53.976Z,53.40
2017-07-31T21:36:21.474Z,53.70
2017-07-31T21:38:49.028Z,53.40
2017-07-31T21:41:16.546Z,53.40
2017-07-31T21:43:44.078Z,53.40
2017-07-31T21:46:12.347Z,53.40
2017-07-31T21:48:39.866Z,53.40
2017-07-31T21:51:07.427Z,53.50
2017-07-31T21:53:34.954Z,53.40
2017-07-31T21:56:02.487Z,53.40
2017-07-31T21:58:29.995Z,53.40
2017-07-31T22:00:57.525Z,53.40
2017-07-31T22:03:25.036Z,53.40
2017-07-31T22:05:52.613Z,53.50
2017-07-31T22:08:21.906Z,53.40
2017-07-31T22:10:50.191Z,53.50
2017-07-31T22:13:18.521Z,53.50
2017-07-31T22:15:46.022Z,53.40
2017-07-31T22:18:20.050Z,53.60
2017-07-31T22:20:53.209Z,53.60
2017-07-31T22:23:21.518Z,53.50
2017-07-31T22:25:49.046Z,53.50
2017-07-31T22:28:17.337Z,53.40
2017-07-31T22:30:44.827Z,53.30
2017-07-31T22:33:12.360Z,53.40
2017-07-31T22:35:39.898Z,53.40
2017-07-31T22:38:08.170Z,53.40
2017-07-31T22:40:36.446Z,53.40
2017-07-31T22:43:04.757Z,53.40
2017-07-31T22:45:32.281Z,53.40
2017-07-31T22:47:59.865Z,53.20
2017-07-31T22:50:27.414Z,53.30
2017-07-31T22:52:55.686Z,53.40
2017-07-31T22:55:24.098Z,53.40
2017-07-31T22:57:51.601Z,53.40
2017-07-31T23:00:19.131Z,53.50
2017-07-31T23:02:46.636Z,53.50
2017-07-31T23:05:14.906Z,53.60
2017-07-31T23:07:43.201Z,53.60
2017-07-31T23:10:11.450Z,54.40
2017-07-31T23:12:38.977Z,53.60
2017-07-31T23:15:06.443Z,53.60
2017-07-31T23:17:33.953Z,53.60
2017-07-31T23:20:01.440Z,53.50
2017-07-31T23:22:28.950Z,53.50
2017-07-31T23:24:57.247Z,53.70
2017-07-31T23:27:24.750Z,53.70
2017-07-31T23:29:52.276Z,53.60
2017-07-31T23:32:19.794Z,53.60
2017-07-31T23:34:48.125Z,54.10
2017-07-31T23:37:15.646Z,53.60
2017-07-31T23:39:43.398Z,53.60
2017-07-31T23:42:11.659Z,54.20
2017-07-31T23:44:39.176Z,53.60
2017-07-31T23:47:06.713Z,53.80
2017-07-31T23:49:34.229Z,53.50
2017-07-31T23:52:01.734Z,53.50
2017-07-31T23:54:29.279Z,53.60
2017-07-31T23:56:56.772Z,53.60
2017-07-31T23:59:24.301Z,53.70
